sensor_id;sensor_type;location;lat;lon;timestamp;temperature;humidity
3770;DHT22;1900;48.890;9.190;2023-07-28T00:02:06;23.50;62.50
3770;DHT22;1900;48.890;9.190;2023-07-28T00:04:33;23.50;62.50
3770;DHT22;1900;48.890;9.190;2023-07-28T00:06:59;23.50;62.50
3770;DHT22;1900;48.890;9.190;2023-07-28T00:09:24;23.40;62.30
3770;DHT22;1900;48.890;9.190;2023-07-28T00:11:50;23.40;62.30
3770;DHT22;1900;48.890;9.190;2023-07-28T00:14:16;23.40;62.20
3770;DHT22;1900;48.890;9.190;2023-07-28T00:16:42;23.40;62.20
3770;DHT22;1900;48.890;9.190;2023-07-28T00:19:07;23.30;62.10
3770;DHT22;1900;48.890;9.190;2023-07-28T00:21:33;23.30;62.20
3770;DHT22;1900;48.890;9.190;2023-07-28T00:23:58;23.30;62.20
3770;DHT22;1900;48.890;9.190;2023-07-28T00:26:24;23.20;62.20
3770;DHT22;1900;48.890;9.190;2023-07-28T00:28:50;23.20;62.30
3770;DHT22;1900;48.890;9.190;2023-07-28T00:31:18;23.20;62.30
3770;DHT22;1900;48.890;9.190;2023-07-28T00:33:44;23.20;62.40
3770;DHT22;1900;48.890;9.190;2023-07-28T00:36:09;23.20;62.30
3770;DHT22;1900;48.890;9.190;2023-07-28T00:38:35;23.20;62.40
3770;DHT22;1900;48.890;9.190;2023-07-28T00:41:01;23.10;62.20
3770;DHT22;1900;48.890;9.190;2023-07-28T00:43:27;23.10;62.20
3770;DHT22;1900;48.890;9.190;2023-07-28T00:45:53;23.10;62.20
3770;DHT22;1900;48.890;9.190;2023-07-28T00:48:19;23.10;62.20
3770;DHT22;1900;48.890;9.190;2023-07-28T00:50:47;23.10;62.20
3770;DHT22;1900;48.890;9.190;2023-07-28T00:53:14;23.10;62.30
3770;DHT22;1900;48.890;9.190;2023-07-28T00:55:39;23.10;62.40
3770;DHT22;1900;48.890;9.190;2023-07-28T00:58:06;23.10;62.40
3770;DHT22;1900;48.890;9.190;2023-07-28T01:00:31;23.10;62.40
3770;DHT22;1900;48.890;9.190;2023-07-28T01:02:57;23.10;62.40
3770;DHT22;1900;48.890;9.190;2023-07-28T01:05:44;23.10;62.50
3770;DHT22;1900;48.890;9.190;2023-07-28T01:11:01;23.00;62.60
3770;DHT22;1900;48.890;9.190;2023-07-28T01:13:27;23.00;62.60
3770;DHT22;1900;48.890;9.190;2023-07-28T01:15:53;23.10;62.70
3770;DHT22;1900;48.890;9.190;2023-07-28T01:18:19;23.10;62.70
3770;DHT22;1900;48.890;9.190;2023-07-28T01:20:45;23.10;63.40
3770;DHT22;1900;48.890;9.190;2023-07-28T01:23:45;23.10;62.70
3770;DHT22;1900;48.890;9.190;2023-07-28T01:26:16;23.10;62.80
3770;DHT22;1900;48.890;9.190;2023-07-28T01:28:43;23.00;62.60
3770;DHT22;1900;48.890;9.190;2023-07-28T01:31:09;23.00;62.60
3770;DHT22;1900;48.890;9.190;2023-07-28T01:33:35;23.00;62.60
3770;DHT22;1900;48.890;9.190;2023-07-28T01:36:02;23.00;62.50
3770;DHT22;1900;48.890;9.190;2023-07-28T01:38:28;23.00;62.60
3770;DHT22;1900;48.890;9.190;2023-07-28T01:40:54;23.00;62.50
3770;DHT22;1900;48.890;9.190;2023-07-28T01:43:19;23.00;62.50
3770;DHT22;1900;48.890;9.190;2023-07-28T01:45:45;22.90;62.40
3770;DHT22;1900;48.890;9.190;2023-07-28T01:48:11;22.90;62.40
3770;DHT22;1900;48.890;9.190;2023-07-28T01:50:37;22.90;62.50
3770;DHT22;1900;48.890;9.190;2023-07-28T01:53:07;22.90;62.40
3770;DHT22;1900;48.890;9.190;2023-07-28T01:55:32;22.90;62.50
3770;DHT22;1900;48.890;9.190;2023-07-28T01:57:59;22.90;62.50
3770;DHT22;1900;48.890;9.190;2023-07-28T02:00:26;22.90;62.50
3770;DHT22;1900;48.890;9.190;2023-07-28T02:02:53;22.90;62.50
3770;DHT22;1900;48.890;9.190;2023-07-28T02:05:19;22.80;62.50
3770;DHT22;1900;48.890;9.190;2023-07-28T02:07:45;22.80;62.50
3770;DHT22;1900;48.890;9.190;2023-07-28T02:10:11;22.80;62.50
3770;DHT22;1900;48.890;9.190;2023-07-28T02:12:38;22.80;63.20
3770;DHT22;1900;48.890;9.190;2023-07-28T02:15:05;22.80;62.60
3770;DHT22;1900;48.890;9.190;2023-07-28T02:17:33;22.80;62.60
3770;DHT22;1900;48.890;9.190;2023-07-28T02:19:59;22.80;62.70
3770;DHT22;1900;48.890;9.190;2023-07-28T02:22:26;22.80;62.70
3770;DHT22;1900;48.890;9.190;2023-07-28T02:24:52;22.80;62.70
3770;DHT22;1900;48.890;9.190;2023-07-28T02:27:18;22.90;62.80
3770;DHT22;1900;48.890;9.190;2023-07-28T02:29:43;22.90;62.80
3770;DHT22;1900;48.890;9.190;2023-07-28T02:32:10;22.90;62.80
3770;DHT22;1900;48.890;9.190;2023-07-28T02:34:36;22.90;62.80
3770;DHT22;1900;48.890;9.190;2023-07-28T02:37:02;22.90;62.90
3770;DHT22;1900;48.890;9.190;2023-07-28T02:39:28;22.90;62.90
3770;DHT22;1900;48.890;9.190;2023-07-28T02:41:54;22.90;62.90
3770;DHT22;1900;48.890;9.190;2023-07-28T02:44:19;22.90;62.90
3770;DHT22;1900;48.890;9.190;2023-07-28T02:46:45;22.90;62.90
3770;DHT22;1900;48.890;9.190;2023-07-28T02:49:11;22.90;62.90
3770;DHT22;1900;48.890;9.190;2023-07-28T02:51:37;22.90;62.90
3770;DHT22;1900;48.890;9.190;2023-07-28T02:54:02;22.90;63.00
3770;DHT22;1900;48.890;9.190;2023-07-28T02:56:29;22.90;62.90
3770;DHT22;1900;48.890;9.190;2023-07-28T02:58:55;22.90;63.00
3770;DHT22;1900;48.890;9.190;2023-07-28T03:01:20;22.90;63.00
3770;DHT22;1900;48.890;9.190;2023-07-28T03:03:46;22.90;63.00
3770;DHT22;1900;48.890;9.190;2023-07-28T03:06:13;22.90;63.10
3770;DHT22;1900;48.890;9.190;2023-07-28T03:08:40;22.90;63.10
3770;DHT22;1900;48.890;9.190;2023-07-28T03:11:29;22.90;63.10
3770;DHT22;1900;48.890;9.190;2023-07-28T03:13:54;22.90;63.00
3770;DHT22;1900;48.890;9.190;2023-07-28T03:16:20;22.90;63.00
3770;DHT22;1900;48.890;9.190;2023-07-28T03:18:46;22.90;63.00
3770;DHT22;1900;48.890;9.190;2023-07-28T03:21:11;22.90;63.10
3770;DHT22;1900;48.890;9.190;2023-07-28T03:23:37;22.90;63.10
3770;DHT22;1900;48.890;9.190;2023-07-28T03:26:03;22.90;63.10
3770;DHT22;1900;48.890;9.190;2023-07-28T03:28:28;22.90;63.10
3770;DHT22;1900;48.890;9.190;2023-07-28T03:30:54;22.90;63.10
3770;DHT22;1900;48.890;9.190;2023-07-28T03:33:20;22.90;63.10
3770;DHT22;1900;48.890;9.190;2023-07-28T03:35:46;22.90;63.20
3770;DHT22;1900;48.890;9.190;2023-07-28T03:38:12;22.90;63.20
3770;DHT22;1900;48.890;9.190;2023-07-28T03:40:39;22.90;63.20
3770;DHT22;1900;48.890;9.190;2023-07-28T03:43:05;22.90;63.30
3770;DHT22;1900;48.890;9.190;2023-07-28T03:45:31;22.90;63.30
3770;DHT22;1900;48.890;9.190;2023-07-28T03:47:56;22.90;63.30
3770;DHT22;1900;48.890;9.190;2023-07-28T03:50:22;22.90;63.30
3770;DHT22;1900;48.890;9.190;2023-07-28T03:52:49;22.90;63.40
3770;DHT22;1900;48.890;9.190;2023-07-28T03:55:15;22.90;63.40
3770;DHT22;1900;48.890;9.190;2023-07-28T03:57:41;23.00;63.50
3770;DHT22;1900;48.890;9.190;2023-07-28T04:00:08;23.00;63.50
3770;DHT22;1900;48.890;9.190;2023-07-28T04:02:40;23.00;63.60
3770;DHT22;1900;48.890;9.190;2023-07-28T04:05:06;23.00;63.60
3770;DHT22;1900;48.890;9.190;2023-07-28T04:07:32;23.00;63.60
3770;DHT22;1900;48.890;9.190;2023-07-28T04:09:57;23.00;63.60
3770;DHT22;1900;48.890;9.190;2023-07-28T04:12:23;23.00;63.60
3770;DHT22;1900;48.890;9.190;2023-07-28T04:14:49;23.00;63.60
3770;DHT22;1900;48.890;9.190;2023-07-28T04:17:14;23.00;63.70
3770;DHT22;1900;48.890;9.190;2023-07-28T04:19:40;23.10;63.70
3770;DHT22;1900;48.890;9.190;2023-07-28T04:22:06;23.10;63.70
3770;DHT22;1900;48.890;9.190;2023-07-28T04:24:32;23.10;63.70
3770;DHT22;1900;48.890;9.190;2023-07-28T04:26:58;23.10;63.80
3770;DHT22;1900;48.890;9.190;2023-07-28T04:29:24;23.10;63.70
3770;DHT22;1900;48.890;9.190;2023-07-28T04:31:50;23.10;64.40
3770;DHT22;1900;48.890;9.190;2023-07-28T04:34:23;23.10;63.80
3770;DHT22;1900;48.890;9.190;2023-07-28T04:37:09;23.10;63.80
3770;DHT22;1900;48.890;9.190;2023-07-28T04:40:01;23.10;63.80
3770;DHT22;1900;48.890;9.190;2023-07-28T04:42:33;23.10;63.80
3770;DHT22;1900;48.890;9.190;2023-07-28T04:44:59;23.20;63.90
3770;DHT22;1900;48.890;9.190;2023-07-28T04:47:24;23.10;63.90
3770;DHT22;1900;48.890;9.190;2023-07-28T04:49:50;23.10;63.90
3770;DHT22;1900;48.890;9.190;2023-07-28T04:52:38;23.10;63.80
3770;DHT22;1900;48.890;9.190;2023-07-28T04:55:23;23.20;64.00
3770;DHT22;1900;48.890;9.190;2023-07-28T04:57:48;23.20;64.00
3770;DHT22;1900;48.890;9.190;2023-07-28T05:00:14;23.20;64.00
3770;DHT22;1900;48.890;9.190;2023-07-28T05:02:40;23.20;64.00
3770;DHT22;1900;48.890;9.190;2023-07-28T05:05:06;23.20;64.10
3770;DHT22;1900;48.890;9.190;2023-07-28T05:07:32;23.20;64.10
3770;DHT22;1900;48.890;9.190;2023-07-28T05:09:58;23.20;64.10
3770;DHT22;1900;48.890;9.190;2023-07-28T05:12:25;23.20;64.10
3770;DHT22;1900;48.890;9.190;2023-07-28T05:14:52;23.20;64.10
3770;DHT22;1900;48.890;9.190;2023-07-28T05:17:19;23.20;64.10
3770;DHT22;1900;48.890;9.190;2023-07-28T05:20:04;23.20;64.10
3770;DHT22;1900;48.890;9.190;2023-07-28T05:22:43;23.20;64.10
3770;DHT22;1900;48.890;9.190;2023-07-28T05:25:08;23.20;64.00
3770;DHT22;1900;48.890;9.190;2023-07-28T05:27:38;23.20;64.10
3770;DHT22;1900;48.890;9.190;2023-07-28T05:30:04;23.20;64.10
3770;DHT22;1900;48.890;9.190;2023-07-28T05:32:31;23.20;64.10
3770;DHT22;1900;48.890;9.190;2023-07-28T05:35:25;23.10;64.10
3770;DHT22;1900;48.890;9.190;2023-07-28T05:37:51;23.20;64.20
3770;DHT22;1900;48.890;9.190;2023-07-28T05:40:17;23.20;64.30
3770;DHT22;1900;48.890;9.190;2023-07-28T05:42:42;23.20;64.30
3770;DHT22;1900;48.890;9.190;2023-07-28T05:45:09;23.20;64.40
3770;DHT22;1900;48.890;9.190;2023-07-28T05:47:34;23.20;64.50
3770;DHT22;1900;48.890;9.190;2023-07-28T05:50:00;23.20;64.60
3770;DHT22;1900;48.890;9.190;2023-07-28T05:52:26;23.30;64.70
3770;DHT22;1900;48.890;9.190;2023-07-28T05:54:52;23.30;64.70
3770;DHT22;1900;48.890;9.190;2023-07-28T05:57:18;23.30;64.80
3770;DHT22;1900;48.890;9.190;2023-07-28T05:59:43;23.40;64.90
3770;DHT22;1900;48.890;9.190;2023-07-28T06:02:09;23.40;64.90
3770;DHT22;1900;48.890;9.190;2023-07-28T06:04:43;23.40;64.90
3770;DHT22;1900;48.890;9.190;2023-07-28T06:07:10;23.40;64.90
3770;DHT22;1900;48.890;9.190;2023-07-28T06:09:36;23.40;64.80
3770;DHT22;1900;48.890;9.190;2023-07-28T06:12:01;23.40;64.80
3770;DHT22;1900;48.890;9.190;2023-07-28T06:14:27;23.40;64.80
3770;DHT22;1900;48.890;9.190;2023-07-28T06:16:54;23.50;64.90
3770;DHT22;1900;48.890;9.190;2023-07-28T06:19:21;23.50;64.90
3770;DHT22;1900;48.890;9.190;2023-07-28T06:21:50;23.40;64.80
3770;DHT22;1900;48.890;9.190;2023-07-28T06:24:17;23.50;65.00
3770;DHT22;1900;48.890;9.190;2023-07-28T06:26:43;23.50;65.00
3770;DHT22;1900;48.890;9.190;2023-07-28T06:29:08;23.50;65.00
3770;DHT22;1900;48.890;9.190;2023-07-28T06:31:34;23.50;65.00
3770;DHT22;1900;48.890;9.190;2023-07-28T06:34:00;23.50;65.00
3770;DHT22;1900;48.890;9.190;2023-07-28T06:36:26;23.50;65.10
3770;DHT22;1900;48.890;9.190;2023-07-28T06:38:52;23.50;65.10
3770;DHT22;1900;48.890;9.190;2023-07-28T06:41:21;23.60;65.20
3770;DHT22;1900;48.890;9.190;2023-07-28T06:43:47;23.60;66.00
3770;DHT22;1900;48.890;9.190;2023-07-28T06:46:14;23.60;65.30
3770;DHT22;1900;48.890;9.190;2023-07-28T06:48:40;23.60;65.30
3770;DHT22;1900;48.890;9.190;2023-07-28T06:51:06;23.60;65.40
3770;DHT22;1900;48.890;9.190;2023-07-28T06:53:32;23.60;65.40
3770;DHT22;1900;48.890;9.190;2023-07-28T06:56:00;23.70;65.50
3770;DHT22;1900;48.890;9.190;2023-07-28T06:58:25;23.70;65.60
3770;DHT22;1900;48.890;9.190;2023-07-28T07:00:51;23.70;65.60
3770;DHT22;1900;48.890;9.190;2023-07-28T07:03:17;23.70;65.60
3770;DHT22;1900;48.890;9.190;2023-07-28T07:05:43;23.70;65.60
3770;DHT22;1900;48.890;9.190;2023-07-28T07:08:09;23.80;65.70
3770;DHT22;1900;48.890;9.190;2023-07-28T07:10:35;23.80;65.80
3770;DHT22;1900;48.890;9.190;2023-07-28T07:13:00;23.80;65.80
3770;DHT22;1900;48.890;9.190;2023-07-28T07:15:26;23.80;65.90
3770;DHT22;1900;48.890;9.190;2023-07-28T07:17:52;23.80;65.90
3770;DHT22;1900;48.890;9.190;2023-07-28T07:20:17;23.90;66.10
3770;DHT22;1900;48.890;9.190;2023-07-28T07:22:44;23.90;66.10
3770;DHT22;1900;48.890;9.190;2023-07-28T07:25:10;24.00;66.20
3770;DHT22;1900;48.890;9.190;2023-07-28T07:27:36;24.00;66.30
3770;DHT22;1900;48.890;9.190;2023-07-28T07:30:02;24.00;66.40
3770;DHT22;1900;48.890;9.190;2023-07-28T07:32:29;24.10;66.60
3770;DHT22;1900;48.890;9.190;2023-07-28T07:34:55;24.20;66.80
3770;DHT22;1900;48.890;9.190;2023-07-28T07:37:20;24.20;66.80
3770;DHT22;1900;48.890;9.190;2023-07-28T07:39:46;24.30;66.90
3770;DHT22;1900;48.890;9.190;2023-07-28T07:42:12;24.40;67.10
3770;DHT22;1900;48.890;9.190;2023-07-28T07:44:39;24.40;67.10
3770;DHT22;1900;48.890;9.190;2023-07-28T07:47:12;24.50;67.20
3770;DHT22;1900;48.890;9.190;2023-07-28T07:49:39;24.60;67.30
3770;DHT22;1900;48.890;9.190;2023-07-28T07:52:06;24.60;67.20
3770;DHT22;1900;48.890;9.190;2023-07-28T07:54:32;24.70;67.20
3770;DHT22;1900;48.890;9.190;2023-07-28T07:56:58;24.70;67.20
3770;DHT22;1900;48.890;9.190;2023-07-28T07:59:24;24.80;67.30
3770;DHT22;1900;48.890;9.190;2023-07-28T08:01:53;24.80;67.30
3770;DHT22;1900;48.890;9.190;2023-07-28T08:04:19;24.90;67.40
3770;DHT22;1900;48.890;9.190;2023-07-28T08:06:46;24.90;67.40
3770;DHT22;1900;48.890;9.190;2023-07-28T08:09:11;24.90;67.40
3770;DHT22;1900;48.890;9.190;2023-07-28T08:11:37;25.00;67.30
3770;DHT22;1900;48.890;9.190;2023-07-28T08:14:03;25.00;67.10
3770;DHT22;1900;48.890;9.190;2023-07-28T08:16:28;25.10;67.20
3770;DHT22;1900;48.890;9.190;2023-07-28T08:18:54;25.10;67.30
3770;DHT22;1900;48.890;9.190;2023-07-28T08:21:20;25.10;67.30
3770;DHT22;1900;48.890;9.190;2023-07-28T08:23:45;25.10;67.30
3770;DHT22;1900;48.890;9.190;2023-07-28T08:26:11;25.10;67.10
3770;DHT22;1900;48.890;9.190;2023-07-28T08:28:37;25.20;67.10
3770;DHT22;1900;48.890;9.190;2023-07-28T08:31:02;25.20;67.20
3770;DHT22;1900;48.890;9.190;2023-07-28T08:33:29;25.20;67.10
3770;DHT22;1900;48.890;9.190;2023-07-28T08:35:55;25.20;67.00
3770;DHT22;1900;48.890;9.190;2023-07-28T08:38:21;25.20;67.00
3770;DHT22;1900;48.890;9.190;2023-07-28T08:40:46;25.20;66.90
3770;DHT22;1900;48.890;9.190;2023-07-28T08:43:12;25.20;66.90
3770;DHT22;1900;48.890;9.190;2023-07-28T08:45:38;25.20;66.90
3770;DHT22;1900;48.890;9.190;2023-07-28T08:48:04;25.20;67.60
3770;DHT22;1900;48.890;9.190;2023-07-28T08:50:30;25.20;67.00
3770;DHT22;1900;48.890;9.190;2023-07-28T08:52:57;25.20;67.10
3770;DHT22;1900;48.890;9.190;2023-07-28T08:55:22;25.20;67.20
3770;DHT22;1900;48.890;9.190;2023-07-28T08:57:48;25.20;67.20
3770;DHT22;1900;48.890;9.190;2023-07-28T09:00:15;25.20;67.30
3770;DHT22;1900;48.890;9.190;2023-07-28T09:02:43;25.20;67.20
3770;DHT22;1900;48.890;9.190;2023-07-28T09:05:21;25.30;67.30
3770;DHT22;1900;48.890;9.190;2023-07-28T09:07:49;25.30;67.30
3770;DHT22;1900;48.890;9.190;2023-07-28T09:10:15;25.30;67.20
3770;DHT22;1900;48.890;9.190;2023-07-28T09:12:45;25.30;67.20
3770;DHT22;1900;48.890;9.190;2023-07-28T09:15:11;25.30;67.20
3770;DHT22;1900;48.890;9.190;2023-07-28T09:17:44;25.40;67.40
3770;DHT22;1900;48.890;9.190;2023-07-28T09:20:15;25.40;67.50
3770;DHT22;1900;48.890;9.190;2023-07-28T09:22:43;25.40;67.60
3770;DHT22;1900;48.890;9.190;2023-07-28T09:25:14;25.50;67.70
3770;DHT22;1900;48.890;9.190;2023-07-28T09:27:40;25.50;67.80
3770;DHT22;1900;48.890;9.190;2023-07-28T09:30:07;25.60;67.80
3770;DHT22;1900;48.890;9.190;2023-07-28T09:32:33;25.60;67.80
3770;DHT22;1900;48.890;9.190;2023-07-28T09:35:10;25.70;67.80
3770;DHT22;1900;48.890;9.190;2023-07-28T09:37:38;25.70;67.70
3770;DHT22;1900;48.890;9.190;2023-07-28T09:40:09;25.70;68.30
3770;DHT22;1900;48.890;9.190;2023-07-28T09:42:39;25.80;67.70
3770;DHT22;1900;48.890;9.190;2023-07-28T09:45:06;25.80;67.80
3770;DHT22;1900;48.890;9.190;2023-07-28T09:47:34;25.80;67.80
3770;DHT22;1900;48.890;9.190;2023-07-28T09:50:03;26.00;67.90
3770;DHT22;1900;48.890;9.190;2023-07-28T09:52:35;25.90;67.70
3770;DHT22;1900;48.890;9.190;2023-07-28T09:55:07;26.00;67.70
3770;DHT22;1900;48.890;9.190;2023-07-28T09:57:41;26.00;67.70
3770;DHT22;1900;48.890;9.190;2023-07-28T10:00:08;26.10;67.80
3770;DHT22;1900;48.890;9.190;2023-07-28T10:02:38;26.10;67.80
3770;DHT22;1900;48.890;9.190;2023-07-28T10:05:07;26.20;67.90
3770;DHT22;1900;48.890;9.190;2023-07-28T10:07:39;26.20;67.80
3770;DHT22;1900;48.890;9.190;2023-07-28T10:10:06;26.30;67.70
3770;DHT22;1900;48.890;9.190;2023-07-28T10:12:50;26.30;67.60
3770;DHT22;1900;48.890;9.190;2023-07-28T10:15:17;26.30;67.60
3770;DHT22;1900;48.890;9.190;2023-07-28T10:17:45;26.40;67.70
3770;DHT22;1900;48.890;9.190;2023-07-28T10:23:22;26.50;67.50
3770;DHT22;1900;48.890;9.190;2023-07-28T10:25:59;26.50;67.50
3770;DHT22;1900;48.890;9.190;2023-07-28T10:28:31;26.50;67.60
3770;DHT22;1900;48.890;9.190;2023-07-28T10:30:58;26.50;67.60
3770;DHT22;1900;48.890;9.190;2023-07-28T10:33:39;26.60;67.40
3770;DHT22;1900;48.890;9.190;2023-07-28T10:38:37;26.60;67.20
3770;DHT22;1900;48.890;9.190;2023-07-28T10:41:10;26.60;67.20
3770;DHT22;1900;48.890;9.190;2023-07-28T10:43:36;26.60;67.00
3770;DHT22;1900;48.890;9.190;2023-07-28T10:46:04;26.60;67.00
3770;DHT22;1900;48.890;9.190;2023-07-28T10:48:31;26.60;67.00
3770;DHT22;1900;48.890;9.190;2023-07-28T10:50:57;26.60;67.00
3770;DHT22;1900;48.890;9.190;2023-07-28T10:53:23;26.60;67.00
3770;DHT22;1900;48.890;9.190;2023-07-28T10:55:48;26.60;66.90
3770;DHT22;1900;48.890;9.190;2023-07-28T10:58:19;26.60;66.80
3770;DHT22;1900;48.890;9.190;2023-07-28T11:00:45;26.60;66.80
3770;DHT22;1900;48.890;9.190;2023-07-28T11:03:12;26.60;66.70
3770;DHT22;1900;48.890;9.190;2023-07-28T11:05:38;26.60;67.40
3770;DHT22;1900;48.890;9.190;2023-07-28T11:08:05;26.60;66.70
3770;DHT22;1900;48.890;9.190;2023-07-28T11:10:33;26.60;66.70
3770;DHT22;1900;48.890;9.190;2023-07-28T11:13:05;26.60;66.70
3770;DHT22;1900;48.890;9.190;2023-07-28T11:15:32;26.60;66.70
3770;DHT22;1900;48.890;9.190;2023-07-28T11:17:58;26.60;66.70
3770;DHT22;1900;48.890;9.190;2023-07-28T11:20:29;26.60;66.60
3770;DHT22;1900;48.890;9.190;2023-07-28T11:22:59;26.60;66.60
3770;DHT22;1900;48.890;9.190;2023-07-28T11:25:27;26.60;66.50
3770;DHT22;1900;48.890;9.190;2023-07-28T11:27:53;26.60;66.50
3770;DHT22;1900;48.890;9.190;2023-07-28T11:30:20;26.60;66.60
3770;DHT22;1900;48.890;9.190;2023-07-28T11:32:49;26.60;66.70
3770;DHT22;1900;48.890;9.190;2023-07-28T11:35:16;26.60;66.70
3770;DHT22;1900;48.890;9.190;2023-07-28T11:37:45;26.60;66.70
3770;DHT22;1900;48.890;9.190;2023-07-28T11:40:11;26.60;66.60
3770;DHT22;1900;48.890;9.190;2023-07-28T11:42:53;26.60;66.70
3770;DHT22;1900;48.890;9.190;2023-07-28T11:45:19;26.60;66.70
3770;DHT22;1900;48.890;9.190;2023-07-28T11:48:03;26.70;66.80
3770;DHT22;1900;48.890;9.190;2023-07-28T11:50:38;26.70;66.70
3770;DHT22;1900;48.890;9.190;2023-07-28T11:53:04;26.70;66.70
3770;DHT22;1900;48.890;9.190;2023-07-28T11:55:31;26.70;66.80
3770;DHT22;1900;48.890;9.190;2023-07-28T11:57:58;26.70;66.90
3770;DHT22;1900;48.890;9.190;2023-07-28T12:03:06;26.80;67.10
3770;DHT22;1900;48.890;9.190;2023-07-28T12:05:35;26.90;67.30
3770;DHT22;1900;48.890;9.190;2023-07-28T12:08:02;26.90;67.40
3770;DHT22;1900;48.890;9.190;2023-07-28T12:10:31;27.00;67.40
3770;DHT22;1900;48.890;9.190;2023-07-28T12:12:58;27.00;67.30
3770;DHT22;1900;48.890;9.190;2023-07-28T12:15:29;27.10;67.30
3770;DHT22;1900;48.890;9.190;2023-07-28T12:18:10;27.10;67.20
3770;DHT22;1900;48.890;9.190;2023-07-28T12:20:45;27.10;67.20
3770;DHT22;1900;48.890;9.190;2023-07-28T12:23:19;27.10;67.20
3770;DHT22;1900;48.890;9.190;2023-07-28T12:25:46;27.10;67.10
3770;DHT22;1900;48.890;9.190;2023-07-28T12:28:12;27.10;67.00
3770;DHT22;1900;48.890;9.190;2023-07-28T12:30:38;27.20;67.00
3770;DHT22;1900;48.890;9.190;2023-07-28T12:33:05;27.20;67.00
3770;DHT22;1900;48.890;9.190;2023-07-28T12:35:32;27.20;66.90
3770;DHT22;1900;48.890;9.190;2023-07-28T12:38:04;27.20;66.90
3770;DHT22;1900;48.890;9.190;2023-07-28T12:40:30;27.20;67.00
3770;DHT22;1900;48.890;9.190;2023-07-28T12:42:58;27.20;66.90
3770;DHT22;1900;48.890;9.190;2023-07-28T12:45:24;27.10;66.70
3770;DHT22;1900;48.890;9.190;2023-07-28T12:47:54;27.10;66.80
3770;DHT22;1900;48.890;9.190;2023-07-28T12:50:23;27.10;66.90
3770;DHT22;1900;48.890;9.190;2023-07-28T12:52:50;27.10;66.80
3770;DHT22;1900;48.890;9.190;2023-07-28T12:55:17;27.10;66.80
3770;DHT22;1900;48.890;9.190;2023-07-28T12:57:43;27.10;66.80
3770;DHT22;1900;48.890;9.190;2023-07-28T13:00:10;27.00;66.70
3770;DHT22;1900;48.890;9.190;2023-07-28T13:02:45;27.00;66.70
3770;DHT22;1900;48.890;9.190;2023-07-28T13:05:12;27.00;66.80
3770;DHT22;1900;48.890;9.190;2023-07-28T13:07:39;27.00;67.50
3770;DHT22;1900;48.890;9.190;2023-07-28T13:10:07;27.00;67.40
3770;DHT22;1900;48.890;9.190;2023-07-28T13:12:34;27.00;66.60
3770;DHT22;1900;48.890;9.190;2023-07-28T13:15:00;26.90;66.60
3770;DHT22;1900;48.890;9.190;2023-07-28T13:17:26;27.00;66.80
3770;DHT22;1900;48.890;9.190;2023-07-28T13:19:51;26.90;66.70
3770;DHT22;1900;48.890;9.190;2023-07-28T13:22:17;26.90;66.80
3770;DHT22;1900;48.890;9.190;2023-07-28T13:24:43;26.90;66.70
3770;DHT22;1900;48.890;9.190;2023-07-28T13:27:09;26.90;66.70
3770;DHT22;1900;48.890;9.190;2023-07-28T13:29:35;26.80;66.50
3770;DHT22;1900;48.890;9.190;2023-07-28T13:32:00;26.80;66.60
3770;DHT22;1900;48.890;9.190;2023-07-28T13:34:27;26.80;66.70
3770;DHT22;1900;48.890;9.190;2023-07-28T13:36:53;26.70;66.50
3770;DHT22;1900;48.890;9.190;2023-07-28T13:39:19;26.70;66.40
3770;DHT22;1900;48.890;9.190;2023-07-28T13:41:45;26.60;66.40
3770;DHT22;1900;48.890;9.190;2023-07-28T13:44:10;26.60;66.50
3770;DHT22;1900;48.890;9.190;2023-07-28T13:46:36;26.50;66.50
3770;DHT22;1900;48.890;9.190;2023-07-28T13:49:02;26.50;66.50
3770;DHT22;1900;48.890;9.190;2023-07-28T13:51:28;26.50;66.60
3770;DHT22;1900;48.890;9.190;2023-07-28T13:53:53;26.40;66.40
3770;DHT22;1900;48.890;9.190;2023-07-28T13:56:19;26.40;66.30
3770;DHT22;1900;48.890;9.190;2023-07-28T13:58:45;26.40;66.40
3770;DHT22;1900;48.890;9.190;2023-07-28T14:01:10;26.40;66.50
3770;DHT22;1900;48.890;9.190;2023-07-28T14:03:36;26.30;66.50
3770;DHT22;1900;48.890;9.190;2023-07-28T14:06:02;26.30;66.50
3770;DHT22;1900;48.890;9.190;2023-07-28T14:08:28;26.30;66.50
3770;DHT22;1900;48.890;9.190;2023-07-28T14:10:53;26.20;66.50
3770;DHT22;1900;48.890;9.190;2023-07-28T14:13:19;26.20;66.50
3770;DHT22;1900;48.890;9.190;2023-07-28T14:15:45;26.20;66.50
3770;DHT22;1900;48.890;9.190;2023-07-28T14:18:11;26.10;66.50
3770;DHT22;1900;48.890;9.190;2023-07-28T14:20:37;26.10;66.60
3770;DHT22;1900;48.890;9.190;2023-07-28T14:23:26;26.00;66.40
3770;DHT22;1900;48.890;9.190;2023-07-28T14:25:52;26.00;66.60
3770;DHT22;1900;48.890;9.190;2023-07-28T14:28:18;26.00;66.40
3770;DHT22;1900;48.890;9.190;2023-07-28T14:30:44;25.90;66.20
3770;DHT22;1900;48.890;9.190;2023-07-28T14:33:14;25.90;66.00
3770;DHT22;1900;48.890;9.190;2023-07-28T14:35:40;25.80;66.10
3770;DHT22;1900;48.890;9.190;2023-07-28T14:38:06;25.70;66.10
3770;DHT22;1900;48.890;9.190;2023-07-28T14:40:32;25.70;66.20
3770;DHT22;1900;48.890;9.190;2023-07-28T14:42:58;25.60;66.30
3770;DHT22;1900;48.890;9.190;2023-07-28T14:45:23;25.60;66.40
3770;DHT22;1900;48.890;9.190;2023-07-28T14:47:49;25.50;66.60
3770;DHT22;1900;48.890;9.190;2023-07-28T14:50:15;25.60;66.70
3770;DHT22;1900;48.890;9.190;2023-07-28T14:52:40;25.50;66.60
3770;DHT22;1900;48.890;9.190;2023-07-28T14:55:07;25.50;66.70
3770;DHT22;1900;48.890;9.190;2023-07-28T14:57:32;25.50;66.80
3770;DHT22;1900;48.890;9.190;2023-07-28T14:59:58;25.50;66.90
3770;DHT22;1900;48.890;9.190;2023-07-28T15:02:23;25.50;66.90
3770;DHT22;1900;48.890;9.190;2023-07-28T15:04:49;25.40;66.80
3770;DHT22;1900;48.890;9.190;2023-07-28T15:07:15;25.40;66.90
3770;DHT22;1900;48.890;9.190;2023-07-28T15:09:42;25.40;67.10
3770;DHT22;1900;48.890;9.190;2023-07-28T15:12:11;25.40;67.10
3770;DHT22;1900;48.890;9.190;2023-07-28T15:14:36;25.40;67.10
3770;DHT22;1900;48.890;9.190;2023-07-28T15:17:02;25.40;67.20
3770;DHT22;1900;48.890;9.190;2023-07-28T15:19:28;25.40;67.20
3770;DHT22;1900;48.890;9.190;2023-07-28T15:21:53;25.40;67.20
3770;DHT22;1900;48.890;9.190;2023-07-28T15:24:19;25.40;67.20
3770;DHT22;1900;48.890;9.190;2023-07-28T15:26:46;25.40;67.20
3770;DHT22;1900;48.890;9.190;2023-07-28T15:29:15;25.40;67.20
3770;DHT22;1900;48.890;9.190;2023-07-28T15:31:41;25.40;67.30
3770;DHT22;1900;48.890;9.190;2023-07-28T15:34:07;25.40;67.30
3770;DHT22;1900;48.890;9.190;2023-07-28T15:36:32;25.40;67.30
3770;DHT22;1900;48.890;9.190;2023-07-28T15:38:58;25.40;67.40
3770;DHT22;1900;48.890;9.190;2023-07-28T15:41:26;25.40;67.50
3770;DHT22;1900;48.890;9.190;2023-07-28T15:43:52;25.40;67.50
3770;DHT22;1900;48.890;9.190;2023-07-28T15:46:18;25.40;67.50
3770;DHT22;1900;48.890;9.190;2023-07-28T15:48:43;25.40;68.20
3770;DHT22;1900;48.890;9.190;2023-07-28T15:51:12;25.40;67.60
3770;DHT22;1900;48.890;9.190;2023-07-28T15:53:37;25.50;67.70
3770;DHT22;1900;48.890;9.190;2023-07-28T15:56:03;25.50;67.70
3770;DHT22;1900;48.890;9.190;2023-07-28T15:58:29;25.50;67.70
3770;DHT22;1900;48.890;9.190;2023-07-28T16:00:55;25.50;67.70
3770;DHT22;1900;48.890;9.190;2023-07-28T16:03:20;25.50;67.70
3770;DHT22;1900;48.890;9.190;2023-07-28T16:05:46;25.50;67.70
3770;DHT22;1900;48.890;9.190;2023-07-28T16:08:12;25.50;67.70
3770;DHT22;1900;48.890;9.190;2023-07-28T16:10:38;25.50;67.70
3770;DHT22;1900;48.890;9.190;2023-07-28T16:13:03;25.50;67.70
3770;DHT22;1900;48.890;9.190;2023-07-28T16:15:29;25.50;67.70